sensor_id;sensor_type;location;lat;lon;timestamp;pressure;altitude;pressure_sealevel;temperature;humidity
70589;BME280;58152;49.202;18.744;2023-06-10T00:00:38;97008.91;;;16.46;75.42
70589;BME280;58152;49.202;18.744;2023-06-10T00:03:06;97015.25;;;16.44;75.41
70589;BME280;58152;49.202;18.744;2023-06-10T00:05:32;97016.56;;;16.38;75.69
70589;BME280;58152;49.202;18.744;2023-06-10T00:08:00;97020.69;;;16.42;75.45
70589;BME280;58152;49.202;18.744;2023-06-10T00:10:35;97014.75;;;16.39;75.66
70589;BME280;58152;49.202;18.744;2023-06-10T00:13:02;97018.38;;;16.38;75.43
70589;BME280;58152;49.202;18.744;2023-06-10T00:15:28;97021.47;;;16.32;76.13
70589;BME280;58152;49.202;18.744;2023-06-10T00:17:54;97018.22;;;16.28;75.62
70589;BME280;58152;49.202;18.744;2023-06-10T00:20:20;97022.53;;;16.29;76.05
70589;BME280;58152;49.202;18.744;2023-06-10T00:22:49;97022.66;;;16.27;75.92
70589;BME280;58152;49.202;18.744;2023-06-10T00:25:14;97027.22;;;16.25;75.71
70589;BME280;58152;49.202;18.744;2023-06-10T00:27:40;97026.63;;;16.22;75.75
70589;BME280;58152;49.202;18.744;2023-06-10T00:30:07;97023.22;;;16.20;75.94
70589;BME280;58152;49.202;18.744;2023-06-10T00:32:34;97028.50;;;16.20;76.02
70589;BME280;58152;49.202;18.744;2023-06-10T00:34:59;97030.44;;;16.18;75.95
70589;BME280;58152;49.202;18.744;2023-06-10T00:37:25;97029.81;;;16.14;75.71
70589;BME280;58152;49.202;18.744;2023-06-10T00:39:50;97028.22;;;16.12;75.77
70589;BME280;58152;49.202;18.744;2023-06-10T00:42:16;97036.16;;;16.12;76.26
70589;BME280;58152;49.202;18.744;2023-06-10T00:44:42;97032.03;;;16.08;76.37
70589;BME280;58152;49.202;18.744;2023-06-10T00:47:07;97036.72;;;16.04;76.08
70589;BME280;58152;49.202;18.744;2023-06-10T00:49:33;97047.19;;;16.06;76.07
70589;BME280;58152;49.202;18.744;2023-06-10T00:51:59;97044.66;;;16.04;76.01
70589;BME280;58152;49.202;18.744;2023-06-10T00:54:25;97051.00;;;16.01;76.31
70589;BME280;58152;49.202;18.744;2023-06-10T00:56:51;97043.06;;;16.01;76.14
70589;BME280;58152;49.202;18.744;2023-06-10T00:59:17;97050.16;;;16.01;76.14
70589;BME280;58152;49.202;18.744;2023-06-10T01:01:43;97043.19;;;16.00;76.13
70589;BME280;58152;49.202;18.744;2023-06-10T01:04:11;97037.28;;;15.96;76.25
70589;BME280;58152;49.202;18.744;2023-06-10T01:10:01;97046.91;;;15.97;76.33
70589;BME280;58152;49.202;18.744;2023-06-10T01:15:01;97040.97;;;15.94;76.07
70589;BME280;58152;49.202;18.744;2023-06-10T01:17:28;97037.47;;;15.93;76.09
70589;BME280;58152;49.202;18.744;2023-06-10T01:19:59;97039.28;;;15.93;76.23
70589;BME280;58152;49.202;18.744;2023-06-10T01:22:25;97035.81;;;15.92;76.10
70589;BME280;58152;49.202;18.744;2023-06-10T01:24:58;97044.06;;;15.88;75.82
70589;BME280;58152;49.202;18.744;2023-06-10T01:27:26;97037.81;;;15.89;75.93
70589;BME280;58152;49.202;18.744;2023-06-10T01:29:59;97037.94;;;15.87;75.95
70589;BME280;58152;49.202;18.744;2023-06-10T01:32:34;97040.38;;;15.90;76.04
70589;BME280;58152;49.202;18.744;2023-06-10T01:35:05;97043.09;;;15.89;75.83
70589;BME280;58152;49.202;18.744;2023-06-10T01:37:36;97036.13;;;15.88;75.75
70589;BME280;58152;49.202;18.744;2023-06-10T01:40:05;97037.09;;;15.87;75.86
70589;BME280;58152;49.202;18.744;2023-06-10T01:42:33;97040.69;;;15.86;75.73
70589;BME280;58152;49.202;18.744;2023-06-10T01:44:59;97036.47;;;15.83;75.41
70589;BME280;58152;49.202;18.744;2023-06-10T01:47:25;97030.66;;;15.78;75.51
70589;BME280;58152;49.202;18.744;2023-06-10T01:49:51;97041.97;;;15.80;75.98
70589;BME280;58152;49.202;18.744;2023-06-10T01:52:18;97036.78;;;15.79;75.84
70589;BME280;58152;49.202;18.744;2023-06-10T01:54:44;97039.56;;;15.77;75.52
70589;BME280;58152;49.202;18.744;2023-06-10T01:57:10;97036.91;;;15.77;75.78
70589;BME280;58152;49.202;18.744;2023-06-10T01:59:38;97038.72;;;15.77;75.63
70589;BME280;58152;49.202;18.744;2023-06-10T02:02:04;97036.16;;;15.75;75.60
70589;BME280;58152;49.202;18.744;2023-06-10T02:04:30;97039.03;;;15.72;75.88
70589;BME280;58152;49.202;18.744;2023-06-10T02:06:56;97039.75;;;15.74;75.67
70589;BME280;58152;49.202;18.744;2023-06-10T02:09:21;97047.56;;;15.75;75.69
70589;BME280;58152;49.202;18.744;2023-06-10T02:11:48;97038.06;;;15.73;75.71
70589;BME280;58152;49.202;18.744;2023-06-10T02:14:17;97046.00;;;15.73;75.85
70589;BME280;58152;49.202;18.744;2023-06-10T02:16:42;97039.75;;;15.74;76.06
70589;BME280;58152;49.202;18.744;2023-06-10T02:19:10;97047.69;;;15.74;76.12
70589;BME280;58152;49.202;18.744;2023-06-10T02:21:36;97045.03;;;15.74;75.98
70589;BME280;58152;49.202;18.744;2023-06-10T02:24:01;97036.59;;;15.69;76.25
70589;BME280;58152;49.202;18.744;2023-06-10T02:26:27;97034.06;;;15.67;76.18
70589;BME280;58152;49.202;18.744;2023-06-10T02:28:52;97030.59;;;15.67;76.17
70589;BME280;58152;49.202;18.744;2023-06-10T02:31:18;97053.09;;;15.72;76.60
70589;BME280;58152;49.202;18.744;2023-06-10T02:33:44;97042.00;;;15.67;76.40
70589;BME280;58152;49.202;18.744;2023-06-10T02:36:10;97047.28;;;15.67;76.44
70589;BME280;58152;49.202;18.744;2023-06-10T02:38:40;97042.22;;;15.64;76.17
70589;BME280;58152;49.202;18.744;2023-06-10T02:41:06;97034.44;;;15.61;76.26
70589;BME280;58152;49.202;18.744;2023-06-10T02:43:31;97034.56;;;15.60;76.67
70589;BME280;58152;49.202;18.744;2023-06-10T02:45:57;97049.19;;;15.65;76.56
70589;BME280;58152;49.202;18.744;2023-06-10T02:48:26;97049.34;;;15.62;76.39
70589;BME280;58152;49.202;18.744;2023-06-10T02:50:53;97046.84;;;15.61;76.40
70589;BME280;58152;49.202;18.744;2023-06-10T02:53:21;97057.13;;;15.65;76.69
70589;BME280;58152;49.202;18.744;2023-06-10T02:55:46;97056.38;;;15.63;76.74
70589;BME280;58152;49.202;18.744;2023-06-10T02:58:12;97054.66;;;15.62;76.74
70589;BME280;58152;49.202;18.744;2023-06-10T03:00:37;97056.38;;;15.63;76.94
70589;BME280;58152;49.202;18.744;2023-06-10T03:03:05;97044.19;;;15.61;76.94
70589;BME280;58152;49.202;18.744;2023-06-10T03:05:31;97054.66;;;15.62;77.13
70589;BME280;58152;49.202;18.744;2023-06-10T03:07:56;97051.28;;;15.60;77.22
70589;BME280;58152;49.202;18.744;2023-06-10T03:10:22;97060.91;;;15.61;77.10
70589;BME280;58152;49.202;18.744;2023-06-10T03:12:47;97057.41;;;15.61;77.20
70589;BME280;58152;49.202;18.744;2023-06-10T03:15:12;97055.72;;;15.60;77.03
70589;BME280;58152;49.202;18.744;2023-06-10T03:17:39;97065.34;;;15.61;77.56
70589;BME280;58152;49.202;18.744;2023-06-10T03:20:05;97057.41;;;15.61;77.24
70589;BME280;58152;49.202;18.744;2023-06-10T03:22:31;97053.41;;;15.55;77.66
70589;BME280;58152;49.202;18.744;2023-06-10T03:24:56;97068.81;;;15.61;77.52
70589;BME280;58152;49.202;18.744;2023-06-10T03:27:22;97063.78;;;15.58;77.73
70589;BME280;58152;49.202;18.744;2023-06-10T03:29:47;97056.03;;;15.55;77.87
70589;BME280;58152;49.202;18.744;2023-06-10T03:32:13;97057.53;;;15.59;78.13
70589;BME280;58152;49.202;18.744;2023-06-10T03:34:40;97057.53;;;15.59;78.40
70589;BME280;58152;49.202;18.744;2023-06-10T03:37:05;97054.97;;;15.58;78.17
70589;BME280;58152;49.202;18.744;2023-06-10T03:39:31;97061.97;;;15.59;78.38
70589;BME280;58152;49.202;18.744;2023-06-10T03:41:56;97059.53;;;15.56;78.35
70589;BME280;58152;49.202;18.744;2023-06-10T03:44:25;97059.31;;;15.59;78.49
70589;BME280;58152;49.202;18.744;2023-06-10T03:46:54;97069.16;;;15.57;78.16
70589;BME280;58152;49.202;18.744;2023-06-10T03:49:20;97056.88;;;15.56;78.51
70589;BME280;58152;49.202;18.744;2023-06-10T03:51:45;97056.78;;;15.57;78.23
70589;BME280;58152;49.202;18.744;2023-06-10T03:54:13;97062.19;;;15.56;78.47
70589;BME280;58152;49.202;18.744;2023-06-10T03:56:39;97061.34;;;15.55;78.23
70589;BME280;58152;49.202;18.744;2023-06-10T03:59:04;97057.72;;;15.56;78.51
70589;BME280;58152;49.202;18.744;2023-06-10T04:01:30;97057.72;;;15.56;78.66
70589;BME280;58152;49.202;18.744;2023-06-10T04:03:56;97060.38;;;15.56;78.70
70589;BME280;58152;49.202;18.744;2023-06-10T04:06:22;97066.41;;;15.58;78.54
70589;BME280;58152;49.202;18.744;2023-06-10T04:08:48;97065.66;;;15.56;78.88
70589;BME280;58152;49.202;18.744;2023-06-10T04:11:13;97069.16;;;15.57;78.77
70589;BME280;58152;49.202;18.744;2023-06-10T04:13:39;97069.91;;;15.59;78.96
70589;BME280;58152;49.202;18.744;2023-06-10T04:16:05;97068.19;;;15.58;78.72
70589;BME280;58152;49.202;18.744;2023-06-10T04:18:30;97062.06;;;15.57;78.95
70589;BME280;58152;49.202;18.744;2023-06-10T04:20:55;97062.91;;;15.58;79.31
70589;BME280;58152;49.202;18.744;2023-06-10T04:23:22;97061.22;;;15.57;78.95
70589;BME280;58152;49.202;18.744;2023-06-10T04:25:47;97058.50;;;15.58;79.19
70589;BME280;58152;49.202;18.744;2023-06-10T04:28:12;97063.78;;;15.58;79.03
70589;BME280;58152;49.202;18.744;2023-06-10T04:30:38;97069.78;;;15.60;79.48
70589;BME280;58152;49.202;18.744;2023-06-10T04:33:04;97065.53;;;15.58;79.45
70589;BME280;58152;49.202;18.744;2023-06-10T04:35:32;97067.97;;;15.61;79.37
70589;BME280;58152;49.202;18.744;2023-06-10T04:37:57;97065.47;;;15.59;79.28
70589;BME280;58152;49.202;18.744;2023-06-10T04:40:23;97073.28;;;15.61;79.12
70589;BME280;58152;49.202;18.744;2023-06-10T04:42:49;97072.44;;;15.60;79.27
70589;BME280;58152;49.202;18.744;2023-06-10T04:45:14;97067.97;;;15.61;79.20
70589;BME280;58152;49.202;18.744;2023-06-10T04:47:40;97067.03;;;15.62;79.54
70589;BME280;58152;49.202;18.744;2023-06-10T04:50:06;97064.28;;;15.63;79.57
70589;BME280;58152;49.202;18.744;2023-06-10T04:52:31;97061.75;;;15.62;79.99
70589;BME280;58152;49.202;18.744;2023-06-10T04:55:00;97063.03;;;15.69;79.75
70589;BME280;58152;49.202;18.744;2023-06-10T04:57:25;97058.81;;;15.66;79.75
70589;BME280;58152;49.202;18.744;2023-06-10T04:59:52;97066.53;;;15.69;79.95
70589;BME280;58152;49.202;18.744;2023-06-10T05:02:17;97071.63;;;15.72;80.18
70589;BME280;58152;49.202;18.744;2023-06-10T05:04:43;97070.44;;;15.77;79.92
70589;BME280;58152;49.202;18.744;2023-06-10T05:07:08;97066.97;;;15.76;80.00
70589;BME280;58152;49.202;18.744;2023-06-10T05:09:34;97065.75;;;15.80;80.28
70589;BME280;58152;49.202;18.744;2023-06-10T05:12:00;97070.13;;;15.81;80.05
70589;BME280;58152;49.202;18.744;2023-06-10T05:14:25;97075.19;;;15.84;80.09
70589;BME280;58152;49.202;18.744;2023-06-10T05:16:50;97069.78;;;15.86;80.33
70589;BME280;58152;49.202;18.744;2023-06-10T05:19:16;97070.53;;;15.88;80.51
70589;BME280;58152;49.202;18.744;2023-06-10T05:21:43;97080.13;;;15.89;80.29
70589;BME280;58152;49.202;18.744;2023-06-10T05:24:09;97082.47;;;15.93;80.37
70589;BME280;58152;49.202;18.744;2023-06-10T05:26:35;97074.44;;;15.95;80.39
70589;BME280;58152;49.202;18.744;2023-06-10T05:29:03;97071.66;;;15.96;80.51
70589;BME280;58152;49.202;18.744;2023-06-10T05:31:29;97074.09;;;15.99;80.74
70589;BME280;58152;49.202;18.744;2023-06-10T05:33:54;97081.91;;;16.01;80.34
70589;BME280;58152;49.202;18.744;2023-06-10T05:36:20;97076.75;;;15.99;80.51
70589;BME280;58152;49.202;18.744;2023-06-10T05:38:46;97079.91;;;16.05;80.47
70589;BME280;58152;49.202;18.744;2023-06-10T05:41:11;97073.66;;;16.06;80.40
70589;BME280;58152;49.202;18.744;2023-06-10T05:43:37;97075.34;;;16.07;80.14
70589;BME280;58152;49.202;18.744;2023-06-10T05:46:02;97080.41;;;16.10;80.69
70589;BME280;58152;49.202;18.744;2023-06-10T05:48:28;97085.59;;;16.11;80.34
70589;BME280;58152;49.202;18.744;2023-06-10T05:50:53;97080.22;;;16.13;80.71
70589;BME280;58152;49.202;18.744;2023-06-10T05:53:19;97070.56;;;16.12;80.64
70589;BME280;58152;49.202;18.744;2023-06-10T05:55:45;97073.97;;;16.14;80.76
70589;BME280;58152;49.202;18.744;2023-06-10T05:58:11;97087.56;;;16.20;80.79
70589;BME280;58152;49.202;18.744;2023-06-10T06:00:40;97083.97;;;16.21;80.98
70589;BME280;58152;49.202;18.744;2023-06-10T06:03:07;97089.16;;;16.23;80.97
70589;BME280;58152;49.202;18.744;2023-06-10T06:05:33;97094.34;;;16.24;80.82
70589;BME280;58152;49.202;18.744;2023-06-10T06:08:18;97086.19;;;16.27;81.37
70589;BME280;58152;49.202;18.744;2023-06-10T06:10:45;97086.81;;;16.31;80.97
70589;BME280;58152;49.202;18.744;2023-06-10T06:13:13;97085.84;;;16.32;80.97
70589;BME280;58152;49.202;18.744;2023-06-10T06:15:38;97069.22;;;16.30;81.06
70589;BME280;58152;49.202;18.744;2023-06-10T06:18:04;97067.19;;;16.34;81.40
70589;BME280;58152;49.202;18.744;2023-06-10T06:20:29;97083.50;;;16.40;81.68
70589;BME280;58152;49.202;18.744;2023-06-10T06:22:55;97073.75;;;16.41;81.48
70589;BME280;58152;49.202;18.744;2023-06-10T06:25:20;97061.13;;;16.44;81.78
70589;BME280;58152;49.202;18.744;2023-06-10T06:27:46;97069.47;;;16.51;81.99
70589;BME280;58152;49.202;18.744;2023-06-10T06:30:11;97071.78;;;16.56;81.81
70589;BME280;58152;49.202;18.744;2023-06-10T06:32:39;97065.63;;;16.55;81.66
70589;BME280;58152;49.202;18.744;2023-06-10T06:35:05;97073.00;;;16.63;81.86
70589;BME280;58152;49.202;18.744;2023-06-10T06:37:33;97071.09;;;16.65;81.76
70589;BME280;58152;49.202;18.744;2023-06-10T06:39:58;97077.09;;;16.67;82.06
70589;BME280;58152;49.202;18.744;2023-06-10T06:42:24;97081.16;;;16.72;81.99
70589;BME280;58152;49.202;18.744;2023-06-10T06:44:50;97078.88;;;16.79;82.09
70589;BME280;58152;49.202;18.744;2023-06-10T06:47:15;97087.47;;;16.83;82.22
70589;BME280;58152;49.202;18.744;2023-06-10T06:49:45;97085.31;;;16.88;82.44
70589;BME280;58152;49.202;18.744;2023-06-10T06:52:10;97080.50;;;16.93;82.29
70589;BME280;58152;49.202;18.744;2023-06-10T06:54:36;97073.06;;;16.98;82.17
70589;BME280;58152;49.202;18.744;2023-06-10T06:57:01;97081.50;;;17.03;82.33
70589;BME280;58152;49.202;18.744;2023-06-10T06:59:27;97075.97;;;17.06;82.28
70589;BME280;58152;49.202;18.744;2023-06-10T07:01:53;97072.22;;;17.09;82.42
70589;BME280;58152;49.202;18.744;2023-06-10T07:04:19;97069.97;;;17.15;82.29
70589;BME280;58152;49.202;18.744;2023-06-10T07:06:47;97074.19;;;17.18;82.34
70589;BME280;58152;49.202;18.744;2023-06-10T07:09:12;97081.69;;;17.24;81.78
70589;BME280;58152;49.202;18.744;2023-06-10T07:11:38;97079.66;;;17.27;81.65
70589;BME280;58152;49.202;18.744;2023-06-10T07:14:04;97074.94;;;17.31;81.48
70589;BME280;58152;49.202;18.744;2023-06-10T07:16:29;97074.56;;;17.36;81.34
70589;BME280;58152;49.202;18.744;2023-06-10T07:18:55;97069.75;;;17.41;81.52
70589;BME280;58152;49.202;18.744;2023-06-10T07:21:20;97068.56;;;17.45;81.30
70589;BME280;58152;49.202;18.744;2023-06-10T07:23:46;97066.88;;;17.44;81.35
70589;BME280;58152;49.202;18.744;2023-06-10T07:26:12;97068.94;;;17.51;81.36
70589;BME280;58152;49.202;18.744;2023-06-10T07:28:39;97071.34;;;17.54;81.43
70589;BME280;58152;49.202;18.744;2023-06-10T07:31:05;97072.69;;;17.60;81.53
70589;BME280;58152;49.202;18.744;2023-06-10T07:33:30;97069.78;;;17.63;81.38
70589;BME280;58152;49.202;18.744;2023-06-10T07:35:56;97074.03;;;17.66;81.31
70589;BME280;58152;49.202;18.744;2023-06-10T07:38:21;97074.63;;;17.69;81.23
70589;BME280;58152;49.202;18.744;2023-06-10T07:40:47;97075.13;;;17.74;81.10
70589;BME280;58152;49.202;18.744;2023-06-10T07:43:12;97061.75;;;17.76;81.25
70589;BME280;58152;49.202;18.744;2023-06-10T07:45:41;97074.16;;;17.87;81.04
70589;BME280;58152;49.202;18.744;2023-06-10T07:48:06;97065.34;;;17.86;80.86
70589;BME280;58152;49.202;18.744;2023-06-10T07:50:32;97072.47;;;17.97;80.50
70589;BME280;58152;49.202;18.744;2023-06-10T07:52:58;97073.94;;;18.01;80.50
70589;BME280;58152;49.202;18.744;2023-06-10T07:55:23;97077.75;;;18.08;80.34
70589;BME280;58152;49.202;18.744;2023-06-10T07:57:51;97076.56;;;18.12;80.19
70589;BME280;58152;49.202;18.744;2023-06-10T08:00:17;97075.22;;;18.18;79.98
70589;BME280;58152;49.202;18.744;2023-06-10T08:02:42;97072.47;;;18.19;79.81
70589;BME280;58152;49.202;18.744;2023-06-10T08:05:08;97072.09;;;18.24;80.04
70589;BME280;58152;49.202;18.744;2023-06-10T08:07:33;97074.09;;;18.32;79.84
70589;BME280;58152;49.202;18.744;2023-06-10T08:09:59;97073.72;;;18.36;79.61
70589;BME280;58152;49.202;18.744;2023-06-10T08:12:24;97086.63;;;18.41;79.54
70589;BME280;58152;49.202;18.744;2023-06-10T08:14:50;97073.97;;;18.44;79.49
70589;BME280;58152;49.202;18.744;2023-06-10T08:17:15;97079.72;;;18.49;79.23
70589;BME280;58152;49.202;18.744;2023-06-10T08:19:41;97069.25;;;18.48;78.75
70589;BME280;58152;49.202;18.744;2023-06-10T08:22:06;97073.34;;;18.52;78.57
70589;BME280;58152;49.202;18.744;2023-06-10T08:24:32;97083.00;;;18.53;78.64
70589;BME280;58152;49.202;18.744;2023-06-10T08:26:57;97074.19;;;18.52;78.50
70589;BME280;58152;49.202;18.744;2023-06-10T08:29:23;97074.03;;;18.54;78.61
70589;BME280;58152;49.202;18.744;2023-06-10T08:31:49;97068.63;;;18.56;78.49
70589;BME280;58152;49.202;18.744;2023-06-10T08:34:14;97065.59;;;18.60;78.51
70589;BME280;58152;49.202;18.744;2023-06-10T08:36:40;97068.72;;;18.65;78.43
70589;BME280;58152;49.202;18.744;2023-06-10T08:39:05;97075.56;;;18.68;77.94
70589;BME280;58152;49.202;18.744;2023-06-10T08:41:40;97073.75;;;18.68;78.08
70589;BME280;58152;49.202;18.744;2023-06-10T08:44:27;97072.84;;;18.69;78.20
70589;BME280;58152;49.202;18.744;2023-06-10T08:46:55;97078.72;;;18.73;78.17
70589;BME280;58152;49.202;18.744;2023-06-10T08:49:23;97077.63;;;18.75;78.34
70589;BME280;58152;49.202;18.744;2023-06-10T08:51:51;97076.66;;;18.76;78.51
70589;BME280;58152;49.202;18.744;2023-06-10T08:54:25;97078.81;;;18.83;78.38
70589;BME280;58152;49.202;18.744;2023-06-10T08:56:54;97075.75;;;18.87;78.29
70589;BME280;58152;49.202;18.744;2023-06-10T08:59:21;97076.34;;;18.91;78.18
70589;BME280;58152;49.202;18.744;2023-06-10T09:01:47;97070.66;;;18.95;78.02
70589;BME280;58152;49.202;18.744;2023-06-10T09:04:13;97074.03;;;18.97;77.90
70589;BME280;58152;49.202;18.744;2023-06-10T09:06:40;97071.94;;;19.01;77.75
70589;BME280;58152;49.202;18.744;2023-06-10T09:09:06;97076.03;;;19.05;78.17
70589;BME280;58152;49.202;18.744;2023-06-10T09:11:32;97083.63;;;19.10;77.97
70589;BME280;58152;49.202;18.744;2023-06-10T09:13:58;97076.38;;;19.12;78.04
70589;BME280;58152;49.202;18.744;2023-06-10T09:16:26;97080.47;;;19.16;77.60
70589;BME280;58152;49.202;18.744;2023-06-10T09:18:52;97070.78;;;19.15;77.35
70589;BME280;58152;49.202;18.744;2023-06-10T09:21:27;97074.03;;;19.18;76.41
70589;BME280;58152;49.202;18.744;2023-06-10T09:23:53;97080.78;;;19.22;76.01
70589;BME280;58152;49.202;18.744;2023-06-10T09:26:18;97077.16;;;19.23;75.80
70589;BME280;58152;49.202;18.744;2023-06-10T09:28:48;97081.84;;;19.31;75.40
70589;BME280;58152;49.202;18.744;2023-06-10T09:31:14;97083.25;;;19.35;74.81
70589;BME280;58152;49.202;18.744;2023-06-10T09:33:44;97066.31;;;19.36;73.81
70589;BME280;58152;49.202;18.744;2023-06-10T09:36:09;97084.41;;;19.42;73.41
70589;BME280;58152;49.202;18.744;2023-06-10T09:38:35;97076.56;;;19.41;73.13
70589;BME280;58152;49.202;18.744;2023-06-10T09:41:02;97072.94;;;19.42;72.80
70589;BME280;58152;49.202;18.744;2023-06-10T09:43:44;97077.00;;;19.46;71.58
70589;BME280;58152;49.202;18.744;2023-06-10T09:46:17;97084.88;;;19.47;72.07
70589;BME280;58152;49.202;18.744;2023-06-10T09:48:44;97073.50;;;19.45;71.99
70589;BME280;58152;49.202;18.744;2023-06-10T09:51:10;97068.63;;;19.50;72.05
70589;BME280;58152;49.202;18.744;2023-06-10T09:53:36;97067.53;;;19.53;71.71
70589;BME280;58152;49.202;18.744;2023-06-10T09:56:05;97065.56;;;19.55;71.76
70589;BME280;58152;49.202;18.744;2023-06-10T09:58:40;97057.81;;;19.63;71.45
70589;BME280;58152;49.202;18.744;2023-06-10T10:01:09;97056.03;;;19.73;71.56
70589;BME280;58152;49.202;18.744;2023-06-10T10:03:56;97059.47;;;19.85;71.39
70589;BME280;58152;49.202;18.744;2023-06-10T10:06:21;97056.97;;;19.93;71.57
70589;BME280;58152;49.202;18.744;2023-06-10T10:08:49;97060.06;;;19.98;71.23
70589;BME280;58152;49.202;18.744;2023-06-10T10:11:20;97064.16;;;20.02;71.21
70589;BME280;58152;49.202;18.744;2023-06-10T10:13:50;97067.50;;;20.04;70.40
70589;BME280;58152;49.202;18.744;2023-06-10T10:16:40;97069.63;;;20.11;70.75
70589;BME280;58152;49.202;18.744;2023-06-10T10:19:23;97053.38;;;20.14;71.34
70589;BME280;58152;49.202;18.744;2023-06-10T10:21:53;97058.72;;;20.23;71.23
70589;BME280;58152;49.202;18.744;2023-06-10T10:24:31;97050.78;;;20.43;70.38
70589;BME280;58152;49.202;18.744;2023-06-10T10:27:01;97048.69;;;20.46;70.38
70589;BME280;58152;49.202;18.744;2023-06-10T10:29:38;97048.44;;;20.49;70.32
70589;BME280;58152;49.202;18.744;2023-06-10T10:32:06;97043.13;;;20.49;69.85
70589;BME280;58152;49.202;18.744;2023-06-10T10:37:20;97042.97;;;20.51;69.87
70589;BME280;58152;49.202;18.744;2023-06-10T10:39:47;97045.47;;;20.52;69.86
70589;BME280;58152;49.202;18.744;2023-06-10T10:42:13;97044.66;;;20.52;69.60
70589;BME280;58152;49.202;18.744;2023-06-10T10:44:39;97040.03;;;20.54;69.74
70589;BME280;58152;49.202;18.744;2023-06-10T10:47:08;97055.59;;;20.59;69.39
70589;BME280;58152;49.202;18.744;2023-06-10T10:49:35;97058.00;;;20.71;69.20
70589;BME280;58152;49.202;18.744;2023-06-10T10:52:02;97046.06;;;20.75;68.78
70589;BME280;58152;49.202;18.744;2023-06-10T10:54:36;97049.59;;;20.76;69.21
70589;BME280;58152;49.202;18.744;2023-06-10T10:59:58;97061.63;;;20.70;69.01
70589;BME280;58152;49.202;18.744;2023-06-10T11:02:35;97064.44;;;20.69;69.53
70589;BME280;58152;49.202;18.744;2023-06-10T11:05:01;97059.69;;;20.63;70.04
70589;BME280;58152;49.202;18.744;2023-06-10T11:07:29;97059.13;;;20.59;70.40
70589;BME280;58152;49.202;18.744;2023-06-10T11:10:09;97056.28;;;20.61;70.41
70589;BME280;58152;49.202;18.744;2023-06-10T11:12:54;97061.22;;;20.65;69.91
70589;BME280;58152;49.202;18.744;2023-06-10T11:15:24;97073.97;;;20.62;70.35
70589;BME280;58152;49.202;18.744;2023-06-10T11:18:12;97094.84;;;20.56;68.70
70589;BME280;58152;49.202;18.744;2023-06-10T11:28:39;97112.25;;;20.20;70.14
70589;BME280;58152;49.202;18.744;2023-06-10T11:31:05;97108.63;;;20.12;70.50
70589;BME280;58152;49.202;18.744;2023-06-10T11:33:31;97097.06;;;20.01;70.53
70589;BME280;58152;49.202;18.744;2023-06-10T11:35:56;97089.63;;;19.95;71.14
70589;BME280;58152;49.202;18.744;2023-06-10T11:38:23;97092.53;;;19.92;71.64
70589;BME280;58152;49.202;18.744;2023-06-10T11:40:49;97095.19;;;19.92;72.09
70589;BME280;58152;49.202;18.744;2023-06-10T11:43:17;97098.84;;;19.91;72.25
70589;BME280;58152;49.202;18.744;2023-06-10T11:45:43;97090.03;;;19.91;72.42
70589;BME280;58152;49.202;18.744;2023-06-10T11:48:09;97094.50;;;19.90;72.62
70589;BME280;58152;49.202;18.744;2023-06-10T11:50:36;97099.00;;;19.90;72.74
70589;BME280;58152;49.202;18.744;2023-06-10T11:53:02;97099.69;;;19.92;72.85
70589;BME280;58152;49.202;18.744;2023-06-10T12:00:52;97092.03;;;19.98;73.29
70589;BME280;58152;49.202;18.744;2023-06-10T12:03:27;97092.88;;;19.99;73.42
70589;BME280;58152;49.202;18.744;2023-06-10T12:06:03;97084.16;;;19.97;73.38
70589;BME280;58152;49.202;18.744;2023-06-10T12:08:29;97092.31;;;20.05;73.56
70589;BME280;58152;49.202;18.744;2023-06-10T12:10:55;97083.34;;;20.06;73.70
70589;BME280;58152;49.202;18.744;2023-06-10T12:13:22;97090.94;;;20.11;73.89
70589;BME280;58152;49.202;18.744;2023-06-10T12:15:49;97085.09;;;20.17;74.20
70589;BME280;58152;49.202;18.744;2023-06-10T12:18:24;97085.63;;;20.20;73.99
70589;BME280;58152;49.202;18.744;2023-06-10T12:20:50;97082.28;;;20.28;74.10
70589;BME280;58152;49.202;18.744;2023-06-10T12:23:19;97085.13;;;20.36;74.12
70589;BME280;58152;49.202;18.744;2023-06-10T12:25:53;97089.25;;;20.60;73.91
70589;BME280;58152;49.202;18.744;2023-06-10T12:28:26;97085.22;;;20.85;73.57
70589;BME280;58152;49.202;18.744;2023-06-10T12:30:52;97089.44;;;20.97;73.37
70589;BME280;58152;49.202;18.744;2023-06-10T12:33:30;97081.13;;;21.19;72.95
70589;BME280;58152;49.202;18.744;2023-06-10T12:35:56;97080.03;;;21.31;72.71
70589;BME280;58152;49.202;18.744;2023-06-10T12:38:23;97076.91;;;21.46;72.07
70589;BME280;58152;49.202;18.744;2023-06-10T12:40:50;97071.97;;;21.61;71.25
70589;BME280;58152;49.202;18.744;2023-06-10T12:43:20;97078.63;;;21.84;71.36
70589;BME280;58152;49.202;18.744;2023-06-10T12:45:45;97077.97;;;22.10;70.89
70589;BME280;58152;49.202;18.744;2023-06-10T12:48:16;97071.63;;;22.11;70.64
70589;BME280;58152;49.202;18.744;2023-06-10T12:50:43;97057.19;;;22.13;70.46
70589;BME280;58152;49.202;18.744;2023-06-10T12:53:10;97064.31;;;22.22;70.40
70589;BME280;58152;49.202;18.744;2023-06-10T12:55:39;97060.81;;;22.40;69.90
70589;BME280;58152;49.202;18.744;2023-06-10T12:58:05;97060.38;;;22.62;69.44
70589;BME280;58152;49.202;18.744;2023-06-10T13:00:31;97065.75;;;22.80;68.86
70589;BME280;58152;49.202;18.744;2023-06-10T13:02:57;97058.25;;;22.83;68.53
70589;BME280;58152;49.202;18.744;2023-06-10T13:05:22;97049.72;;;22.98;68.34
70589;BME280;58152;49.202;18.744;2023-06-10T13:07:48;97053.53;;;22.95;68.10
70589;BME280;58152;49.202;18.744;2023-06-10T13:10:15;97050.00;;;22.95;67.80
70589;BME280;58152;49.202;18.744;2023-06-10T13:12:42;97035.03;;;22.84;67.85
70589;BME280;58152;49.202;18.744;2023-06-10T13:15:07;97040.84;;;22.79;67.45